Greenbrier Valley Airport Lewisburg US
ICAO: KLWB
IATA: LWB
Category: Medium
Scheduled Services: No

Elevation: 2302 ft
TransAlt. 18000 ft.

Airport Communications:
AWOS 3:121.4
CLNC DEL:120.85
WASHINGTON CNTR:134.4
CTAF:118.9
GND:121.9
LEWISBURG TWR:118.9
UNICOM:122.95

KLWB Zoom In..

Runways:

(A) RW 04 length 7003 ft width 150 ft
ILS 110.35 / hdg 43

(B) RW 22 length 7003 ft width 150 ft
---- / hdg 223

Location; KLWB
Day. 15 / Time. 22.55 Zulu
* Altimeter: 30.12
* Temperature: 24° c. 75.2°f.
* Wind from: 000° Speed 00 kn.
Dewpoint: 18° c.
Visibility: 10 Statute Miles.
Clouds: Scattered 6000 ft.
Clouds: Scattered 11000 ft.

KLWB 152255Z AUTO 00000KT 10SM VCTS SCT060 SCT110 24/18 A3012 RMK AO2 LTG DSNT W THRU NE T02350180


Wind - Calm.

 
 
jpsmedia.com for Web Design worldairports.se 2018   terms of use